createdAt,value
2022-07-25T00:00:14.162Z,14.67
2022-07-25T00:03:10.820Z,14.67
2022-07-25T00:05:43.484Z,14.68
2022-07-25T00:08:15.593Z,14.68
2022-07-25T00:10:48.973Z,14.68
2022-07-25T00:13:21.262Z,14.63
2022-07-25T00:15:56.260Z,14.58
2022-07-25T00:18:29.469Z,14.57
2022-07-25T00:21:01.804Z,14.52
2022-07-25T00:23:36.224Z,14.52
2022-07-25T00:26:08.779Z,14.53
2022-07-25T00:28:41.174Z,14.55
2022-07-25T00:31:13.470Z,14.56
2022-07-25T00:33:46.047Z,14.49
2022-07-25T00:36:18.484Z,14.38
2022-07-25T00:38:50.714Z,14.28
2022-07-25T00:41:22.900Z,14.21
2022-07-25T00:43:55.321Z,14.20
2022-07-25T00:46:28.304Z,14.20
2022-07-25T00:49:01.136Z,14.18
2022-07-25T00:51:37.489Z,14.20
2022-07-25T00:54:09.709Z,14.21
2022-07-25T00:56:42.404Z,14.21
2022-07-25T00:59:16.712Z,14.23
2022-07-25T01:01:49.430Z,14.22
2022-07-25T01:04:22.313Z,14.19
2022-07-25T01:06:54.762Z,14.14
2022-07-25T01:09:27.737Z,14.13
2022-07-25T01:12:00.098Z,14.15
2022-07-25T01:14:32.511Z,14.17
2022-07-25T01:17:05.600Z,14.17
2022-07-25T01:19:37.856Z,14.16
2022-07-25T01:22:12.821Z,14.16
2022-07-25T01:24:46.600Z,14.14
2022-07-25T01:27:22.909Z,14.11
2022-07-25T01:29:55.075Z,14.07
2022-07-25T01:32:28.274Z,13.96
2022-07-25T01:35:00.853Z,13.92
2022-07-25T01:37:33.128Z,13.89
2022-07-25T01:40:06.259Z,13.88
2022-07-25T01:42:38.866Z,13.89
2022-07-25T01:45:13.185Z,13.89
2022-07-25T01:47:45.306Z,13.88
2022-07-25T01:50:17.584Z,13.85
2022-07-25T01:52:49.810Z,13.82
2022-07-25T01:55:22.075Z,13.77
2022-07-25T01:57:54.332Z,13.67
2022-07-25T02:00:26.924Z,13.61
2022-07-25T02:03:22.130Z,13.61
2022-07-25T02:05:54.401Z,13.57
2022-07-25T02:08:26.685Z,13.49
2022-07-25T02:10:59.799Z,13.47
2022-07-25T02:13:32.069Z,13.49
2022-07-25T02:16:04.648Z,13.49
2022-07-25T02:18:37.043Z,13.45
2022-07-25T02:21:14.005Z,13.43
2022-07-25T02:23:50.890Z,13.43
2022-07-25T02:26:23.341Z,13.35
2022-07-25T02:28:55.801Z,13.35
2022-07-25T02:31:28.020Z,13.36
2022-07-25T02:34:00.288Z,13.36
2022-07-25T02:36:33.613Z,13.29
2022-07-25T02:39:06.648Z,13.19
2022-07-25T02:41:39.023Z,13.11
2022-07-25T02:44:11.220Z,13.06
2022-07-25T02:46:43.537Z,13.07
2022-07-25T02:49:17.422Z,13.10
2022-07-25T02:51:52.568Z,13.12
2022-07-25T02:54:25.173Z,13.10
2022-07-25T02:56:57.400Z,13.03
2022-07-25T02:59:32.279Z,12.95
2022-07-25T03:02:04.704Z,12.92
2022-07-25T03:04:36.923Z,12.95
2022-07-25T03:07:09.243Z,12.92
2022-07-25T03:09:42.880Z,12.86
2022-07-25T03:12:15.442Z,12.78
2022-07-25T03:14:47.722Z,12.78
2022-07-25T03:17:20.035Z,12.82
2022-07-25T03:19:52.205Z,12.77
2022-07-25T03:22:25.247Z,12.76
2022-07-25T03:24:57.577Z,12.74
2022-07-25T03:27:31.383Z,12.71
2022-07-25T03:30:03.861Z,12.67
2022-07-25T03:32:36.170Z,12.65
2022-07-25T03:35:09.961Z,12.64
2022-07-25T03:37:42.193Z,12.65
2022-07-25T03:40:16.100Z,12.67
2022-07-25T03:42:48.957Z,12.66
2022-07-25T03:45:21.667Z,12.64
2022-07-25T03:47:56.017Z,12.62
2022-07-25T03:50:28.877Z,12.63
2022-07-25T03:53:03.686Z,12.64
2022-07-25T03:55:36.102Z,12.66
2022-07-25T03:58:08.411Z,12.68
2022-07-25T04:00:40.644Z,12.73
2022-07-25T04:03:13.343Z,12.79
2022-07-25T04:05:47.723Z,12.84
2022-07-25T04:08:20.027Z,12.88
2022-07-25T04:10:54.497Z,12.94
2022-07-25T04:13:26.708Z,12.98
2022-07-25T04:15:59.098Z,13.02
2022-07-25T04:18:33.691Z,13.09
2022-07-25T04:21:07.681Z,13.15
2022-07-25T04:23:41.821Z,13.22
2022-07-25T04:26:14.625Z,13.28
2022-07-25T04:28:46.855Z,13.36
2022-07-25T04:31:19.561Z,13.46
2022-07-25T04:33:51.788Z,13.55
2022-07-25T04:36:24.106Z,13.64
2022-07-25T04:38:56.713Z,13.76
2022-07-25T04:41:29.581Z,13.88
2022-07-25T04:44:01.809Z,14.02
2022-07-25T04:46:37.093Z,14.16
2022-07-25T04:49:09.600Z,14.30
2022-07-25T04:51:41.831Z,14.44
2022-07-25T04:54:14.081Z,14.58
2022-07-25T04:56:46.221Z,14.73
2022-07-25T04:59:18.395Z,14.87
2022-07-25T05:01:50.727Z,15.02
2022-07-25T05:04:25.296Z,15.15
2022-07-25T05:06:57.723Z,15.29
2022-07-25T05:09:30.134Z,15.47
2022-07-25T05:12:02.387Z,15.64
2022-07-25T05:14:35.263Z,15.81
2022-07-25T05:17:07.841Z,15.97
2022-07-25T05:19:40.829Z,16.14
2022-07-25T05:22:12.977Z,16.35
2022-07-25T05:24:45.240Z,16.56
2022-07-25T05:27:18.573Z,16.77
2022-07-25T05:29:50.918Z,16.97
2022-07-25T05:32:23.224Z,17.15
2022-07-25T05:34:55.543Z,17.31
2022-07-25T05:37:31.116Z,17.48
2022-07-25T05:40:04.078Z,17.62
2022-07-25T05:42:36.422Z,17.77
2022-07-25T05:45:10.347Z,17.93
2022-07-25T05:47:42.573Z,18.15
2022-07-25T05:50:14.936Z,18.33
2022-07-25T05:52:47.903Z,18.48
2022-07-25T05:55:20.383Z,18.63
2022-07-25T05:57:52.935Z,18.77
2022-07-25T06:00:25.313Z,18.94
2022-07-25T06:03:01.385Z,19.09
2022-07-25T06:05:33.784Z,19.21
2022-07-25T06:08:06.323Z,19.35
2022-07-25T06:10:38.590Z,19.47
2022-07-25T06:13:15.401Z,19.60
2022-07-25T06:15:47.682Z,19.73
2022-07-25T06:18:20.435Z,19.87
2022-07-25T06:20:52.861Z,20.03
2022-07-25T06:23:27.770Z,20.18
2022-07-25T06:26:00.143Z,20.33
2022-07-25T06:28:33.605Z,20.41
2022-07-25T06:31:05.880Z,20.47
2022-07-25T06:33:38.156Z,20.58
2022-07-25T06:36:11.185Z,20.70
2022-07-25T06:38:43.389Z,20.82
2022-07-25T06:41:18.427Z,20.96
2022-07-25T06:43:50.559Z,21.14
2022-07-25T06:46:22.739Z,21.33
2022-07-25T06:48:54.983Z,21.49
2022-07-25T06:51:27.799Z,21.63
2022-07-25T06:54:00.300Z,21.74
2022-07-25T06:56:33.867Z,21.85
2022-07-25T06:59:06.811Z,21.96
2022-07-25T07:01:39.566Z,22.08
2022-07-25T07:04:12.932Z,22.23
2022-07-25T07:06:45.382Z,22.37
2022-07-25T07:09:39.469Z,22.54
2022-07-25T07:12:12.798Z,22.74
2022-07-25T07:15:03.913Z,22.84
2022-07-25T07:17:36.819Z,22.85
2022-07-25T07:20:14.409Z,22.93
2022-07-25T07:22:51.270Z,23.01
2022-07-25T07:25:25.022Z,23.10
2022-07-25T07:28:00.610Z,23.19
2022-07-25T07:31:05.707Z,23.30
2022-07-25T07:33:28.698Z,23.35
2022-07-25T07:36:00.937Z,23.38
2022-07-25T07:38:33.251Z,23.43
2022-07-25T07:41:05.405Z,23.55
2022-07-25T07:43:37.581Z,23.67
2022-07-25T07:46:09.879Z,23.70
2022-07-25T07:48:42.227Z,23.76
2022-07-25T07:51:14.369Z,23.90
2022-07-25T07:54:04.329Z,24.03
2022-07-25T07:56:36.553Z,24.18
2022-07-25T07:59:09.040Z,24.30
2022-07-25T08:01:41.839Z,24.46
2022-07-25T08:04:14.097Z,24.57
2022-07-25T08:06:46.317Z,24.62
2022-07-25T08:09:18.584Z,24.66
2022-07-25T08:11:50.760Z,24.66
2022-07-25T08:14:22.951Z,24.72
2022-07-25T08:16:57.481Z,24.81
2022-07-25T08:19:29.631Z,24.88
2022-07-25T08:22:01.910Z,24.94
2022-07-25T08:24:34.232Z,25.03
2022-07-25T08:27:06.579Z,25.15
2022-07-25T08:29:38.780Z,25.29
2022-07-25T08:32:10.907Z,25.44
2022-07-25T08:34:43.578Z,25.59
2022-07-25T08:37:16.219Z,25.70
2022-07-25T08:40:02.857Z,25.70
2022-07-25T08:42:36.262Z,25.64
2022-07-25T08:45:13.303Z,25.65
2022-07-25T08:47:45.655Z,25.65
2022-07-25T08:50:20.071Z,25.68
2022-07-25T08:53:10.022Z,25.76
2022-07-25T08:55:47.938Z,25.91
2022-07-25T08:58:20.760Z,26.07
2022-07-25T09:00:52.918Z,26.22
2022-07-25T09:03:25.219Z,26.31
2022-07-25T09:05:57.451Z,26.34
2022-07-25T09:08:29.658Z,26.36
2022-07-25T09:11:01.902Z,26.45
2022-07-25T09:13:38.617Z,26.53
2022-07-25T09:16:13.997Z,26.57
2022-07-25T09:18:47.138Z,26.57
2022-07-25T09:21:20.033Z,26.61
2022-07-25T09:23:52.291Z,26.71
2022-07-25T09:26:24.763Z,26.79
2022-07-25T09:29:01.037Z,26.85
2022-07-25T09:31:36.724Z,26.96
2022-07-25T09:34:10.275Z,27.05
2022-07-25T09:36:51.645Z,27.17
2022-07-25T09:39:33.445Z,27.27
2022-07-25T09:42:15.501Z,27.31
2022-07-25T09:44:58.327Z,27.34
2022-07-25T09:47:31.811Z,27.36
2022-07-25T09:50:06.501Z,27.38
2022-07-25T09:52:40.585Z,27.46
2022-07-25T09:55:16.469Z,27.59
2022-07-25T09:57:52.701Z,27.69
2022-07-25T10:00:27.594Z,27.77
2022-07-25T10:03:18.824Z,27.78
2022-07-25T10:06:03.694Z,27.86
2022-07-25T10:08:40.917Z,27.90
2022-07-25T10:11:23.584Z,27.90
2022-07-25T10:13:56.732Z,27.94
2022-07-25T10:16:29.679Z,27.95
2022-07-25T10:19:01.935Z,27.98
2022-07-25T10:21:36.166Z,28.00
2022-07-25T10:24:11.007Z,28.02
2022-07-25T10:26:54.229Z,28.00
2022-07-25T10:29:36.773Z,27.95
2022-07-25T10:32:13.786Z,27.95
2022-07-25T10:34:55.060Z,27.95
2022-07-25T10:37:32.619Z,28.03
2022-07-25T10:40:09.564Z,28.10
2022-07-25T10:42:46.319Z,28.06
2022-07-25T10:45:20.988Z,27.99
2022-07-25T10:47:56.959Z,27.98
2022-07-25T10:50:54.410Z,27.98
2022-07-25T10:54:08.817Z,27.98
2022-07-25T11:00:59.474Z,28.09
2022-07-25T11:06:42.121Z,28.14
2022-07-25T11:10:13.878Z,28.11
2022-07-25T11:21:20.229Z,28.16
2022-07-25T11:23:59.083Z,28.24
2022-07-25T11:30:39.377Z,28.44
2022-07-25T11:37:07.343Z,28.47
2022-07-25T11:39:42.238Z,28.48
2022-07-25T11:43:09.215Z,28.43
2022-07-25T11:45:42.086Z,28.38
2022-07-25T11:48:23.003Z,28.40
2022-07-25T11:54:36.532Z,28.43
2022-07-25T11:57:08.987Z,28.42
2022-07-25T11:59:46.145Z,28.40
2022-07-25T12:02:26.522Z,28.42
2022-07-25T12:05:01.201Z,28.44
2022-07-25T12:07:42.391Z,28.51
2022-07-25T12:10:21.663Z,28.57
2022-07-25T12:12:55.638Z,28.66
2022-07-25T12:15:30.700Z,28.76
2022-07-25T12:18:03.707Z,28.82
2022-07-25T12:20:39.820Z,28.79
2022-07-25T12:23:50.051Z,28.81
2022-07-25T12:30:56.642Z,28.85
2022-07-25T12:34:17.891Z,28.95
2022-07-25T12:36:50.083Z,29.04
2022-07-25T12:44:11.882Z,29.12
2022-07-25T12:47:11.480Z,29.12
2022-07-25T12:49:50.171Z,29.11
2022-07-25T12:57:13.668Z,29.34
2022-07-25T12:59:46.134Z,29.42
2022-07-25T13:02:21.454Z,29.46
2022-07-25T13:04:53.882Z,29.55
2022-07-25T13:07:26.082Z,29.66
2022-07-25T13:09:58.225Z,29.77
2022-07-25T13:12:30.452Z,29.81
2022-07-25T13:15:03.377Z,29.89
2022-07-25T13:17:35.770Z,29.91
2022-07-25T13:20:09.975Z,29.87
2022-07-25T13:22:42.689Z,29.92
2022-07-25T13:25:14.863Z,30.00
2022-07-25T13:27:48.644Z,30.06
2022-07-25T13:30:20.944Z,30.13
2022-07-25T13:32:54.246Z,30.13
2022-07-25T13:35:33.733Z,30.15
2022-07-25T13:38:09.869Z,30.17
2022-07-25T13:40:42.996Z,30.21
2022-07-25T13:43:16.058Z,30.24
2022-07-25T13:45:51.834Z,30.27
2022-07-25T13:48:31.661Z,30.36
2022-07-25T13:51:04.871Z,30.45
2022-07-25T13:53:37.289Z,30.49
2022-07-25T13:56:09.913Z,30.46
2022-07-25T13:58:43.214Z,30.44
2022-07-25T14:01:15.868Z,30.43
2022-07-25T14:03:48.478Z,30.44
2022-07-25T14:06:21.366Z,30.40
2022-07-25T14:08:54.816Z,30.39
2022-07-25T14:11:30.662Z,30.44
2022-07-25T14:14:03.079Z,30.41
2022-07-25T14:16:35.530Z,30.35
2022-07-25T14:19:08.445Z,30.35
2022-07-25T14:21:43.673Z,30.38
2022-07-25T14:24:15.856Z,30.43
2022-07-25T14:26:49.262Z,30.46
2022-07-25T14:29:21.423Z,30.48
2022-07-25T14:31:53.827Z,30.50
2022-07-25T14:34:26.235Z,30.49
2022-07-25T14:36:58.456Z,30.50
2022-07-25T14:39:30.956Z,30.54
2022-07-25T14:42:03.331Z,30.54
2022-07-25T14:44:35.496Z,30.51
2022-07-25T14:47:12.583Z,30.51
2022-07-25T14:49:45.039Z,30.57
2022-07-25T14:52:17.518Z,30.54
2022-07-25T14:54:49.944Z,30.46
2022-07-25T14:57:22.489Z,30.47
2022-07-25T14:59:55.184Z,30.48
2022-07-25T15:02:28.144Z,30.47
2022-07-25T15:05:00.373Z,30.44
2022-07-25T15:07:33.363Z,30.37
2022-07-25T15:10:06.183Z,30.30
2022-07-25T15:12:38.407Z,30.26
2022-07-25T15:15:11.638Z,30.22
2022-07-25T15:17:43.991Z,30.25
2022-07-25T15:20:17.424Z,30.25
2022-07-25T15:22:49.570Z,30.22
2022-07-25T15:25:59.592Z,30.22
2022-07-25T15:28:14.350Z,30.19
2022-07-25T15:30:48.862Z,30.15
2022-07-25T15:33:22.249Z,30.14
2022-07-25T15:35:54.890Z,30.14
2022-07-25T15:38:27.254Z,30.09
2022-07-25T15:40:59.650Z,30.06
2022-07-25T15:43:33.405Z,30.02
2022-07-25T15:46:11.723Z,29.99
2022-07-25T15:48:46.208Z,29.99
2022-07-25T15:51:20.788Z,29.93
2022-07-25T15:54:34.849Z,29.87
2022-07-25T15:57:08.383Z,29.76
2022-07-25T15:59:40.772Z,29.68
2022-07-25T16:03:08.994Z,29.63
2022-07-25T16:05:41.711Z,29.58
2022-07-25T16:08:14.116Z,29.58
2022-07-25T16:10:47.399Z,29.58
2022-07-25T16:13:19.703Z,29.51
2022-07-25T16:16:22.155Z,29.45
2022-07-25T16:28:06.843Z,29.19
2022-07-25T16:35:42.518Z,29.04
2022-07-25T16:38:14.905Z,29.01
2022-07-25T16:40:54.774Z,28.99
2022-07-25T16:43:27.102Z,28.98
2022-07-25T16:46:05.638Z,28.93
2022-07-25T16:57:35.488Z,28.74
2022-07-25T17:00:10.020Z,28.70
2022-07-25T17:02:43.990Z,28.66
2022-07-25T17:05:24.969Z,28.61
2022-07-25T17:21:45.062Z,28.31
2022-07-25T17:29:17.921Z,28.06
2022-07-25T17:31:50.545Z,27.97
2022-07-25T17:34:26.958Z,27.87
2022-07-25T17:37:02.749Z,27.77
2022-07-25T17:39:36.073Z,27.67
2022-07-25T17:42:09.054Z,27.57
2022-07-25T17:44:41.873Z,27.46
2022-07-25T17:47:14.120Z,27.34
2022-07-25T17:49:46.578Z,27.23
2022-07-25T17:52:18.875Z,27.08
2022-07-25T17:54:51.085Z,26.94
2022-07-25T17:57:23.410Z,26.81
2022-07-25T17:59:56.032Z,26.68
2022-07-25T18:02:29.051Z,26.53
2022-07-25T18:05:01.315Z,26.37
2022-07-25T18:07:33.873Z,26.21
2022-07-25T18:10:07.497Z,26.05
2022-07-25T18:12:40.067Z,25.88
2022-07-25T18:15:14.929Z,25.74
2022-07-25T18:17:48.878Z,25.58
2022-07-25T18:20:21.334Z,25.43
2022-07-25T18:22:53.817Z,25.28
2022-07-25T18:25:29.035Z,25.13
2022-07-25T18:28:02.229Z,25.00
2022-07-25T18:30:35.244Z,24.85
2022-07-25T18:33:08.277Z,24.70
2022-07-25T18:35:40.665Z,24.56
2022-07-25T18:38:13.026Z,24.42
2022-07-25T18:45:55.393Z,23.96
2022-07-25T18:48:29.089Z,23.77
2022-07-25T18:51:28.812Z,23.64
2022-07-25T18:54:08.437Z,23.50
2022-07-25T18:56:41.144Z,23.38
2022-07-25T18:59:19.683Z,23.27
2022-07-25T19:01:52.724Z,23.15
2022-07-25T19:04:26.115Z,23.04
2022-07-25T19:07:04.960Z,22.93
2022-07-25T19:23:21.934Z,22.48
2022-07-25T19:42:58.148Z,22.10
2022-07-25T19:45:32.669Z,22.02
2022-07-25T19:52:36.511Z,21.83
2022-07-25T19:56:23.670Z,21.75
2022-07-25T19:59:03.010Z,21.73
2022-07-25T20:10:49.441Z,22.03
2022-07-25T20:13:21.957Z,22.08
2022-07-25T20:16:41.501Z,22.13
2022-07-25T20:19:14.125Z,22.18
2022-07-25T20:21:53.594Z,22.19
2022-07-25T20:24:28.486Z,22.21
2022-07-25T20:27:56.832Z,22.22
2022-07-25T20:30:34.409Z,22.24
2022-07-25T20:34:55.922Z,22.23
2022-07-25T20:37:34.899Z,22.19
2022-07-25T20:44:28.832Z,22.14
2022-07-25T20:47:25.363Z,22.12
2022-07-25T20:49:57.652Z,22.08
2022-07-25T20:52:41.591Z,22.06
2022-07-25T20:59:33.002Z,21.99
2022-07-25T21:02:05.389Z,21.98
2022-07-25T21:18:02.590Z,21.46
2022-07-25T21:20:35.064Z,21.35
2022-07-25T21:23:09.830Z,21.28
2022-07-25T21:25:49.726Z,21.22
2022-07-25T21:33:14.747Z,20.97
2022-07-25T21:36:36.046Z,20.84
2022-07-25T21:43:38.187Z,20.63
2022-07-25T21:46:10.449Z,20.56
2022-07-25T21:52:52.653Z,20.41
2022-07-25T21:55:32.318Z,20.35
2022-07-25T21:58:05.088Z,20.29
2022-07-25T22:09:49.064Z,20.05
2022-07-25T22:12:23.804Z,20.01
2022-07-25T22:15:47.120Z,19.98
2022-07-25T22:18:19.338Z,19.96
2022-07-25T22:20:58.118Z,19.92
2022-07-25T22:23:30.442Z,19.92
2022-07-25T22:26:09.683Z,19.98
2022-07-25T22:28:42.135Z,19.98
2022-07-25T22:31:21.119Z,19.96
2022-07-25T22:33:53.792Z,19.90
2022-07-25T22:41:35.965Z,19.80
2022-07-25T22:44:08.575Z,19.77
2022-07-25T22:46:40.813Z,19.76
2022-07-25T22:49:13.576Z,19.77
2022-07-25T22:51:51.910Z,19.77
2022-07-25T22:58:55.059Z,19.70
2022-07-25T23:01:28.060Z,19.71
2022-07-25T23:04:07.163Z,19.71
2022-07-25T23:06:39.832Z,19.72
2022-07-25T23:14:02.827Z,19.70
2022-07-25T23:21:57.141Z,19.76
2022-07-25T23:24:38.099Z,19.79
2022-07-25T23:27:59.943Z,19.83
2022-07-25T23:30:40.693Z,19.86
2022-07-25T23:38:03.159Z,19.93
2022-07-25T23:40:35.525Z,19.92
2022-07-25T23:44:11.115Z,19.91
2022-07-25T23:51:16.020Z,19.81
2022-07-25T23:53:48.510Z,19.79
2022-07-25T23:56:27.588Z,19.79
2022-07-25T23:58:59.770Z,19.81
